Alfred, North Dakota
Current Conditions -  °F | °C
As of 1:56 PM on Friday 24 Oct 2014 (Local Time) from KJMS Reporting Station
Clear Clear  
Wind Chill: 71°   Ceiling: Unl
Heat Index: 71°   Visibility: 10mi
Dew Point: 41°   Wind: 17mph
Humidity: 34%   Direction: 280°W
Pressure: 29.82"   Gusts: NA
Location:  46.4882°N, 98.8135°W
Report Text: KJMS 241856Z AUTO 28015KT 10SM CLR 22/05 A2982 RMK AO2 SLP098 T02170050
Loading
Personal Weather Stations






























Interactive Weather Map New forecast layout! Learn more

10-Day Weather Forecast

Advertisements
Track Severe Weather on mobile